Time;durP1;ratioP1;P1;durP2;ratioP2;P2;SDS_P1;SDS_P2;PMS_P1;PMS_P2;Temp;Humidity;BMP_temperature;BMP_pressure;BME280_temperature;BME280_humidity;BME280_pressure;Samples;Min_cycle;Max_cycle;Signal;HPM_P1;HPM_P2
2024/01/10 00:00:52;;;;;;;15.30;11.68;;;;;;;;;;5051245;28;20017;-78
2024/01/10 00:03:18;;;;;;;14.52;11.00;;;;;;;;;;5049634;28;20021;-77
2024/01/10 00:05:44;;;;;;;14.52;10.93;;;;;;;;;;5050023;28;20023;-78
2024/01/10 00:08:10;;;;;;;14.30;11.15;;;;;;;;;;5049333;28;20051;-77
2024/01/10 00:10:36;;;;;;;13.90;11.13;;;;;;;;;;5049686;28;20020;-78
2024/01/10 00:13:02;;;;;;;15.05;11.48;;;;;;;;;;5049420;28;20036;-77
2024/01/10 00:15:28;;;;;;;14.30;11.07;;;;;;;;;;5049370;28;20017;-78
2024/01/10 00:17:54;;;;;;;14.75;11.60;;;;;;;;;;5049011;28;20061;-78
2024/01/10 00:20:20;;;;;;;16.90;12.00;;;;;;;;;;5051303;28;20021;-77
2024/01/10 00:22:46;;;;;;;13.32;11.10;;;;;;;;;;5049013;28;20491;-77
2024/01/10 00:25:12;;;;;;;14.40;11.57;;;;;;;;;;5049095;28;20013;-78
2024/01/10 00:27:38;;;;;;;14.43;11.55;;;;;;;;;;5050505;28;20043;-78
2024/01/10 00:30:05;;;;;;;13.52;11.10;;;;;;;;;;5049670;28;20021;-77
2024/01/10 00:32:31;;;;;;;15.93;11.15;;;;;;;;;;5049256;28;20388;-78
2024/01/10 00:34:57;;;;;;;13.10;10.82;;;;;;;;;;5050490;28;20387;-77
2024/01/10 00:37:23;;;;;;;14.68;11.38;;;;;;;;;;5048917;28;20377;-77
2024/01/10 00:39:49;;;;;;;13.20;10.88;;;;;;;;;;5050592;28;20021;-77
2024/01/10 00:42:15;;;;;;;13.07;10.45;;;;;;;;;;5048997;28;20020;-78
2024/01/10 00:44:41;;;;;;;13.60;10.45;;;;;;;;;;5048737;28;20445;-78
2024/01/10 00:47:07;;;;;;;13.18;10.45;;;;;;;;;;5050065;28;20013;-77
2024/01/10 00:49:33;;;;;;;13.30;10.35;;;;;;;;;;5049099;28;20086;-78
2024/01/10 00:51:59;;;;;;;13.43;10.90;;;;;;;;;;5048583;28;20378;-78
2024/01/10 00:54:25;;;;;;;14.25;10.00;;;;;;;;;;5049767;28;20025;-78
2024/01/10 00:56:51;;;;;;;14.20;10.27;;;;;;;;;;5049678;28;20048;-78
2024/01/10 00:59:17;;;;;;;15.23;11.80;;;;;;;;;;5047908;28;20086;-78
2024/01/10 01:01:43;;;;;;;15.15;11.07;;;;;;;;;;5049862;28;20025;-78
2024/01/10 01:04:09;;;;;;;13.20;9.05;;;;;;;;;;5049797;28;20024;-78
2024/01/10 01:06:35;;;;;;;15.63;11.95;;;;;;;;;;5048458;28;20305;-78
2024/01/10 01:09:02;;;;;;;13.52;11.02;;;;;;;;;;5049904;28;20197;-77
2024/01/10 01:11:28;;;;;;;15.27;11.68;;;;;;;;;;5048550;28;20020;-77
2024/01/10 01:13:54;;;;;;;15.15;11.40;;;;;;;;;;5048178;28;20027;-77
2024/01/10 01:16:20;;;;;;;16.63;11.90;;;;;;;;;;5048581;28;20027;-78
2024/01/10 01:18:46;;;;;;;14.50;11.82;;;;;;;;;;5048544;28;20268;-77
2024/01/10 01:21:12;;;;;;;16.45;12.25;;;;;;;;;;5048286;28;20343;-77
2024/01/10 01:23:38;;;;;;;15.82;12.35;;;;;;;;;;5049110;28;20013;-77
2024/01/10 01:26:04;;;;;;;16.90;12.82;;;;;;;;;;5048677;28;20394;-78
2024/01/10 01:28:31;;;;;;;15.50;12.05;;;;;;;;;;5048131;28;20107;-78
2024/01/10 01:30:57;;;;;;;15.15;11.27;;;;;;;;;;5048232;28;20029;-77
2024/01/10 01:33:23;;;;;;;16.45;12.70;;;;;;;;;;5049626;28;20363;-78
2024/01/10 01:35:49;;;;;;;17.50;13.48;;;;;;;;;;5049357;28;20182;-78
2024/01/10 01:38:15;;;;;;;18.00;13.63;;;;;;;;;;5049195;28;20078;-77
2024/01/10 01:40:41;;;;;;;16.75;13.23;;;;;;;;;;5048272;28;20025;-78
2024/01/10 01:43:21;;;;;;;18.60;13.88;;;;;;;;;;5048943;28;20035;-78
2024/01/10 01:45:47;;;;;;;18.50;13.90;;;;;;;;;;5029102;28;20557;-78
2024/01/10 01:48:14;;;;;;;18.13;14.38;;;;;;;;;;5028106;28;20018;-78
2024/01/10 01:50:40;;;;;;;19.83;14.70;;;;;;;;;;5048005;28;20031;-78
2024/01/10 01:53:07;;;;;;;19.80;14.93;;;;;;;;;;5047693;28;20196;-78
2024/01/10 01:55:33;;;;;;;18.35;14.82;;;;;;;;;;5047506;28;20027;-77
2024/01/10 01:57:59;;;;;;;20.35;13.40;;;;;;;;;;5049152;28;20021;-77
2024/01/10 02:00:25;;;;;;;20.60;15.52;;;;;;;;;;5047452;28;20025;-78
2024/01/10 02:02:52;;;;;;;20.83;15.60;;;;;;;;;;5047702;28;20017;-78
2024/01/10 02:05:18;;;;;;;20.83;15.82;;;;;;;;;;5047953;28;20021;-78
2024/01/10 02:07:44;;;;;;;23.30;16.10;;;;;;;;;;5047396;28;20040;-77
2024/01/10 02:10:10;;;;;;;22.58;16.65;;;;;;;;;;5047212;28;20055;-78
2024/01/10 02:12:36;;;;;;;22.90;16.88;;;;;;;;;;5048532;28;20040;-78
2024/01/10 02:15:03;;;;;;;23.40;16.20;;;;;;;;;;5047647;28;20025;-77
2024/01/10 02:17:29;;;;;;;23.63;15.85;;;;;;;;;;5047432;28;20017;-78
2024/01/10 02:20:08;;;;;;;24.30;17.65;;;;;;;;;;5047544;28;20480;-77
2024/01/10 02:22:34;;;;;;;24.00;18.25;;;;;;;;;;5046710;28;20013;-77
2024/01/10 02:25:00;;;;;;;26.02;19.50;;;;;;;;;;5048589;28;20532;-77
2024/01/10 02:27:26;;;;;;;27.35;18.20;;;;;;;;;;5048943;28;20024;-78
2024/01/10 02:29:53;;;;;;;25.05;19.13;;;;;;;;;;5048526;28;20060;-78
2024/01/10 02:32:19;;;;;;;24.52;18.52;;;;;;;;;;5047168;28;20066;-78
2024/01/10 02:34:45;;;;;;;26.80;19.88;;;;;;;;;;5046870;28;20017;-78
2024/01/10 02:37:11;;;;;;;27.98;19.80;;;;;;;;;;5047668;28;20029;-78
2024/01/10 02:39:37;;;;;;;25.23;17.80;;;;;;;;;;5048395;28;20032;-78
2024/01/10 02:42:04;;;;;;;26.55;18.80;;;;;;;;;;5047313;28;20173;-78
2024/01/10 02:44:30;;;;;;;23.50;16.33;;;;;;;;;;5048132;28;20023;-78
2024/01/10 02:46:56;;;;;;;23.85;17.83;;;;;;;;;;5046784;28;20017;-77
2024/01/10 02:49:22;;;;;;;25.80;18.73;;;;;;;;;;5048138;28;20021;-77
2024/01/10 02:51:49;;;;;;;23.00;18.05;;;;;;;;;;5046838;28;20029;-77
2024/01/10 02:54:15;;;;;;;25.73;18.20;;;;;;;;;;5047615;28;20029;-78
2024/01/10 02:56:40;;;;;;;26.10;18.80;;;;;;;;;;5046590;28;20374;-78
2024/01/10 02:59:07;;;;;;;24.77;18.50;;;;;;;;;;5046482;28;20027;-78
2024/01/10 03:01:33;;;;;;;26.48;18.95;;;;;;;;;;5046489;28;20457;-78
2024/01/10 03:03:59;;;;;;;25.98;18.58;;;;;;;;;;5047731;28;20025;-77
2024/01/10 03:06:25;;;;;;;23.13;14.20;;;;;;;;;;5047899;28;20021;-78
2024/01/10 03:08:51;;;;;;;26.75;19.67;;;;;;;;;;5046504;28;20262;-78
2024/01/10 03:11:18;;;;;;;25.75;19.15;;;;;;;;;;5046590;28;20021;-78
2024/01/10 03:13:47;;;;;;;26.38;18.60;;;;;;;;;;5046846;28;20025;-77
2024/01/10 03:16:13;;;;;;;27.27;18.80;;;;;;;;;;5046355;28;20079;-78
2024/01/10 03:18:39;;;;;;;26.05;19.33;;;;;;;;;;5048242;28;20373;-77
2024/01/10 03:21:06;;;;;;;22.33;17.40;;;;;;;;;;5046179;28;20024;-78
2024/01/10 03:23:32;;;;;;;25.60;18.58;;;;;;;;;;5050374;28;20393;-78
2024/01/10 03:25:58;;;;;;;25.85;18.70;;;;;;;;;;5052070;28;20021;-79
2024/01/10 03:28:24;;;;;;;26.77;18.55;;;;;;;;;;5051631;28;20032;-77
2024/01/10 03:30:51;;;;;;;24.67;18.25;;;;;;;;;;5050427;28;20024;-78
2024/01/10 03:33:16;;;;;;;23.20;14.82;;;;;;;;;;5050568;28;20021;-77
2024/01/10 03:35:42;;;;;;;23.63;18.00;;;;;;;;;;5050295;28;20045;-78
2024/01/10 03:38:09;;;;;;;22.58;16.88;;;;;;;;;;5051711;28;20052;-78
2024/01/10 03:40:35;;;;;;;24.42;17.77;;;;;;;;;;5050567;28;20017;-78
2024/01/10 03:43:01;;;;;;;23.25;17.38;;;;;;;;;;5051709;28;20074;-77
2024/01/10 03:45:28;;;;;;;24.27;17.15;;;;;;;;;;5051992;28;20009;-78
2024/01/10 03:47:54;;;;;;;22.58;17.27;;;;;;;;;;5050404;28;20114;-78
2024/01/10 03:50:20;;;;;;;23.80;17.58;;;;;;;;;;5051932;28;20043;-77
2024/01/10 03:52:46;;;;;;;21.15;14.88;;;;;;;;;;5051233;28;20025;-77
2024/01/10 03:55:13;;;;;;;20.80;11.27;;;;;;;;;;5050531;28;20384;-78
2024/01/10 03:57:39;;;;;;;23.42;16.48;;;;;;;;;;5050194;28;20029;-77
2024/01/10 04:00:09;;;;;;;21.13;16.70;;;;;;;;;;5051513;28;20013;-77
2024/01/10 04:02:38;;;;;;;21.10;16.17;;;;;;;;;;5052004;28;20075;-78
2024/01/10 04:05:06;;;;;;;19.45;14.00;;;;;;;;;;5049994;28;20052;-78
2024/01/10 04:07:33;;;;;;;20.27;15.73;;;;;;;;;;5049590;28;20013;-78
2024/01/10 04:09:59;;;;;;;22.10;16.58;;;;;;;;;;5050143;28;20040;-78
2024/01/10 04:12:25;;;;;;;21.33;16.35;;;;;;;;;;5051276;28;20051;-79
2024/01/10 04:14:51;;;;;;;19.98;16.02;;;;;;;;;;5051687;28;20013;-78
2024/01/10 04:17:17;;;;;;;21.67;16.52;;;;;;;;;;5051040;28;20442;-78
2024/01/10 04:19:43;;;;;;;22.25;17.33;;;;;;;;;;5051336;28;20033;-75
2024/01/10 04:22:09;;;;;;;23.92;16.55;;;;;;;;;;5050803;28;20401;-78
2024/01/10 04:24:34;;;;;;;20.40;16.52;;;;;;;;;;5049652;28;20017;-77
2024/01/10 04:27:00;;;;;;;22.35;17.58;;;;;;;;;;5050747;28;20436;-78
2024/01/10 04:29:27;;;;;;;23.63;17.33;;;;;;;;;;5049846;28;20016;-78
2024/01/10 04:31:53;;;;;;;23.58;17.13;;;;;;;;;;5049764;28;20487;-78
2024/01/10 04:34:19;;;;;;;21.95;16.48;;;;;;;;;;5048271;28;20394;-78
2024/01/10 04:36:45;;;;;;;23.55;13.45;;;;;;;;;;5054384;28;20432;-78
2024/01/10 04:39:11;;;;;;;23.00;16.83;;;;;;;;;;5054984;28;20343;-78
2024/01/10 04:41:37;;;;;;;22.48;17.23;;;;;;;;;;5048821;28;20029;-78
2024/01/10 04:44:03;;;;;;;22.08;17.98;;;;;;;;;;5050140;28;20017;-78
2024/01/10 04:46:29;;;;;;;23.10;16.48;;;;;;;;;;5047446;28;20389;-78
2024/01/10 04:48:55;;;;;;;23.60;17.10;;;;;;;;;;5048901;28;20078;-78
2024/01/10 04:51:22;;;;;;;20.25;11.57;;;;;;;;;;5048622;28;20502;-78
2024/01/10 04:53:48;;;;;;;21.27;16.55;;;;;;;;;;5048815;28;20029;-78
2024/01/10 04:56:14;;;;;;;22.65;17.42;;;;;;;;;;5048449;28;20167;-78
2024/01/10 04:58:40;;;;;;;21.05;14.82;;;;;;;;;;5048629;28;20048;-78
2024/01/10 05:01:06;;;;;;;37.00;22.15;;;;;;;;;;5050060;28;20094;-77
2024/01/10 05:03:32;;;;;;;28.20;16.13;;;;;;;;;;5057304;28;20149;-78
2024/01/10 05:05:58;;;;;;;30.85;19.33;;;;;;;;;;5048950;28;20029;-78
2024/01/10 05:08:24;;;;;;;34.33;19.60;;;;;;;;;;5049978;28;20028;-77
2024/01/10 05:10:50;;;;;;;26.88;17.55;;;;;;;;;;5049139;28;20028;-78
2024/01/10 05:13:16;;;;;;;30.98;19.92;;;;;;;;;;5049315;28;20116;-77
2024/01/10 05:15:42;;;;;;;31.60;20.70;;;;;;;;;;5050193;28;20027;-78
2024/01/10 05:18:08;;;;;;;27.77;18.75;;;;;;;;;;5050534;28;20033;-77
2024/01/10 05:20:34;;;;;;;25.45;18.60;;;;;;;;;;5050009;28;20017;-78
2024/01/10 05:23:01;;;;;;;24.45;16.20;;;;;;;;;;5047807;28;20021;-77
2024/01/10 05:25:27;;;;;;;25.23;17.88;;;;;;;;;;5048889;28;20449;-77
2024/01/10 05:27:53;;;;;;;28.48;17.95;;;;;;;;;;5048019;28;20469;-76
2024/01/10 05:30:20;;;;;;;26.75;17.85;;;;;;;;;;5047998;28;20017;-79
2024/01/10 05:32:46;;;;;;;23.73;16.83;;;;;;;;;;5045738;28;20048;-77
2024/01/10 05:35:12;;;;;;;25.73;17.70;;;;;;;;;;5049772;28;20061;-77
2024/01/10 05:37:38;;;;;;;24.75;15.50;;;;;;;;;;5049758;28;20504;-79
2024/01/10 05:40:07;;;;;;;26.13;19.23;;;;;;;;;;5049876;28;20029;-77
2024/01/10 05:42:33;;;;;;;24.17;17.88;;;;;;;;;;5048677;28;20088;-77
2024/01/10 05:45:02;;;;;;;54.38;28.50;;;;;;;;;;5048760;28;20104;-78
2024/01/10 05:47:28;;;;;;;47.35;26.30;;;;;;;;;;5047927;28;20021;-78
2024/01/10 05:49:54;;;;;;;28.52;19.88;;;;;;;;;;5049483;28;20021;-78
2024/01/10 05:52:22;;;;;;;25.40;18.27;;;;;;;;;;5047334;28;20025;-78
2024/01/10 05:54:48;;;;;;;22.60;17.40;;;;;;;;;;5049285;28;20013;-78
2024/01/10 05:57:14;;;;;;;25.05;17.20;;;;;;;;;;5047852;28;20461;-77
2024/01/10 05:59:43;;;;;;;22.83;17.65;;;;;;;;;;5049009;28;20308;-78
2024/01/10 06:02:09;;;;;;;23.10;17.65;;;;;;;;;;5046743;28;20107;-78
2024/01/10 06:04:35;;;;;;;23.67;18.42;;;;;;;;;;5047357;28;20100;-78
2024/01/10 06:07:01;;;;;;;24.35;18.30;;;;;;;;;;5047340;28;20324;-78
2024/01/10 06:09:27;;;;;;;26.85;18.60;;;;;;;;;;5048820;28;20565;-78
2024/01/10 06:11:53;;;;;;;25.40;19.17;;;;;;;;;;5047238;28;20063;-77
2024/01/10 06:14:19;;;;;;;25.05;18.17;;;;;;;;;;5048752;28;20284;-77
2024/01/10 06:16:45;;;;;;;24.75;17.90;;;;;;;;;;5049152;28;20024;-78
2024/01/10 06:19:12;;;;;;;24.90;19.45;;;;;;;;;;5048922;28;20025;-78
2024/01/10 06:21:38;;;;;;;28.60;20.98;;;;;;;;;;5044838;28;20067;-78
2024/01/10 06:24:04;;;;;;;29.35;22.50;;;;;;;;;;5047352;28;20044;-77
2024/01/10 06:26:30;;;;;;;29.52;21.33;;;;;;;;;;5049031;28;20017;-77
2024/01/10 06:28:56;;;;;;;29.88;22.98;;;;;;;;;;5047447;28;20529;-77
2024/01/10 06:31:23;;;;;;;29.25;20.17;;;;;;;;;;5047545;28;20028;-78
2024/01/10 06:33:49;;;;;;;31.13;21.83;;;;;;;;;;5047399;28;20020;-77
2024/01/10 06:36:15;;;;;;;30.88;21.40;;;;;;;;;;5047009;28;20659;-78
2024/01/10 06:38:41;;;;;;;29.17;21.98;;;;;;;;;;5048377;28;20036;-78
2024/01/10 06:41:08;;;;;;;32.08;23.25;;;;;;;;;;5046305;28;20104;-77
2024/01/10 06:43:34;;;;;;;26.45;17.40;;;;;;;;;;5044722;28;20032;-78
2024/01/10 06:46:00;;;;;;;33.53;23.52;;;;;;;;;;5046160;28;20009;-78
2024/01/10 06:48:26;;;;;;;31.67;23.17;;;;;;;;;;5047066;28;20021;-78
2024/01/10 06:50:52;;;;;;;30.98;23.77;;;;;;;;;;5045901;28;20031;-78
2024/01/10 06:53:18;;;;;;;31.42;23.50;;;;;;;;;;5046696;28;20032;-78
2024/01/10 06:55:44;;;;;;;33.72;23.77;;;;;;;;;;5045317;28;20381;-78
2024/01/10 06:58:10;;;;;;;31.13;24.13;;;;;;;;;;5045363;28;20090;-78
2024/01/10 07:00:38;;;;;;;33.30;23.98;;;;;;;;;;5046841;28;20059;-78
2024/01/10 07:03:04;;;;;;;34.30;23.58;;;;;;;;;;5047977;28;20025;-78
2024/01/10 07:05:31;;;;;;;31.98;24.13;;;;;;;;;;5046022;28;20372;-78
2024/01/10 07:08:02;;;;;;;35.00;26.50;;;;;;;;;;5047162;28;20021;-78
2024/01/10 07:10:29;;;;;;;36.65;26.58;;;;;;;;;;5048255;28;20461;-78
2024/01/10 07:12:58;;;;;;;31.35;23.90;;;;;;;;;;5046570;28;20032;-77
2024/01/10 07:15:24;;;;;;;33.10;24.95;;;;;;;;;;5048414;28;20197;-78
2024/01/10 07:17:50;;;;;;;32.65;24.70;;;;;;;;;;5048619;28;20013;-76
2024/01/10 07:20:16;;;;;;;31.13;24.50;;;;;;;;;;5048143;28;20018;-76
2024/01/10 07:22:43;;;;;;;36.70;27.60;;;;;;;;;;5046676;28;20035;-76
2024/01/10 07:25:10;;;;;;;33.95;24.20;;;;;;;;;;5046141;28;20013;-76
2024/01/10 07:27:39;;;;;;;33.20;23.83;;;;;;;;;;5046541;28;20079;-76
2024/01/10 07:30:14;;;;;;;32.08;24.45;;;;;;;;;;5046339;28;20537;-76
2024/01/10 07:32:43;;;;;;;30.67;23.13;;;;;;;;;;5047835;28;20067;-76
2024/01/10 07:35:10;;;;;;;31.50;23.95;;;;;;;;;;5048567;28;20045;-79
2024/01/10 07:37:39;;;;;;;33.25;23.17;;;;;;;;;;5047325;28;20013;-79
2024/01/10 07:40:06;;;;;;;27.48;18.50;;;;;;;;;;5048728;28;20109;-79
2024/01/10 07:42:35;;;;;;;31.42;23.15;;;;;;;;;;5047324;28;20491;-78
2024/01/10 07:45:05;;;;;;;31.85;23.35;;;;;;;;;;5047243;28;20438;-79
2024/01/10 07:47:31;;;;;;;32.27;22.20;;;;;;;;;;5048787;28;20033;-80
2024/01/10 07:49:58;;;;;;;31.92;23.42;;;;;;;;;;5048962;28;20092;-79
2024/01/10 07:52:24;;;;;;;33.35;24.23;;;;;;;;;;5049138;28;20101;-80
2024/01/10 07:54:50;;;;;;;30.27;23.33;;;;;;;;;;5047262;28;20129;-79
2024/01/10 07:57:18;;;;;;;31.65;23.75;;;;;;;;;;5047409;28;20029;-80
2024/01/10 07:59:44;;;;;;;31.48;23.85;;;;;;;;;;5048307;28;20048;-80
2024/01/10 08:02:11;;;;;;;31.45;23.60;;;;;;;;;;5048353;28;20013;-78
2024/01/10 08:04:37;;;;;;;31.23;23.33;;;;;;;;;;5046096;28;20017;-78
2024/01/10 08:07:03;;;;;;;31.35;23.95;;;;;;;;;;5045980;28;20444;-78
2024/01/10 08:09:29;;;;;;;29.63;22.40;;;;;;;;;;5048848;28;20027;-78
2024/01/10 08:11:55;;;;;;;28.48;22.23;;;;;;;;;;5052053;28;20384;-78
2024/01/10 08:14:21;;;;;;;28.40;21.20;;;;;;;;;;5051986;28;20023;-78
2024/01/10 08:16:47;;;;;;;26.17;20.42;;;;;;;;;;5052955;28;20024;-78
2024/01/10 08:19:14;;;;;;;28.50;21.52;;;;;;;;;;5048659;28;20090;-78
2024/01/10 08:21:40;;;;;;;27.58;21.02;;;;;;;;;;5050138;28;20010;-80
2024/01/10 08:24:06;;;;;;;27.70;20.85;;;;;;;;;;5050319;28;20025;-79
2024/01/10 08:26:32;;;;;;;25.80;20.50;;;;;;;;;;5051012;28;20096;-78
2024/01/10 08:28:58;;;;;;;25.85;19.67;;;;;;;;;;5049517;28;20108;-79
2024/01/10 08:31:26;;;;;;;23.90;17.75;;;;;;;;;;5050482;28;20096;-78
2024/01/10 08:33:52;;;;;;;24.90;17.35;;;;;;;;;;5049571;28;20025;-79
2024/01/10 08:36:18;;;;;;;24.73;18.23;;;;;;;;;;5049201;28;20049;-78
2024/01/10 08:38:44;;;;;;;24.17;16.48;;;;;;;;;;5050072;28;20503;-78
2024/01/10 08:41:11;;;;;;;23.38;16.98;;;;;;;;;;5049178;28;20016;-78
2024/01/10 08:43:37;;;;;;;22.63;17.92;;;;;;;;;;5048414;28;20492;-78
2024/01/10 08:46:03;;;;;;;20.00;16.42;;;;;;;;;;5047906;28;20053;-78
2024/01/10 08:48:29;;;;;;;18.20;12.57;;;;;;;;;;5049258;28;20547;-78
2024/01/10 08:50:56;;;;;;;20.10;15.15;;;;;;;;;;5048884;28;20024;-80
2024/01/10 08:53:22;;;;;;;19.42;14.65;;;;;;;;;;5048486;28;20116;-75
2024/01/10 08:55:48;;;;;;;18.73;14.35;;;;;;;;;;5048051;28;20682;-75
2024/01/10 08:58:14;;;;;;;18.25;13.43;;;;;;;;;;5049618;28;20025;-75
2024/01/10 09:00:40;;;;;;;18.42;14.00;;;;;;;;;;5045757;28;20013;-75
2024/01/10 09:03:07;;;;;;;18.85;13.95;;;;;;;;;;5028222;28;20013;-75
2024/01/10 09:05:33;;;;;;;18.15;13.88;;;;;;;;;;5041830;28;20074;-75
2024/01/10 09:08:00;;;;;;;15.20;12.60;;;;;;;;;;5031079;28;20100;-75
2024/01/10 09:10:27;;;;;;;17.10;12.80;;;;;;;;;;5038204;28;20457;-75
2024/01/10 09:12:53;;;;;;;16.40;12.27;;;;;;;;;;5047967;28;20021;-75
2024/01/10 09:15:19;;;;;;;17.98;13.25;;;;;;;;;;5048598;28;20078;-75
2024/01/10 09:17:46;;;;;;;16.77;12.77;;;;;;;;;;5047003;28;20071;-75
2024/01/10 09:20:12;;;;;;;16.33;12.95;;;;;;;;;;5047067;28;20470;-75
2024/01/10 09:22:39;;;;;;;17.45;12.52;;;;;;;;;;5047809;28;20483;-75
2024/01/10 09:25:05;;;;;;;14.13;9.02;;;;;;;;;;5047920;28;20114;-75
2024/01/10 09:27:35;;;;;;;16.40;12.25;;;;;;;;;;5047706;28;20024;-75
2024/01/10 09:30:04;;;;;;;17.98;13.20;;;;;;;;;;5049213;28;20025;-75
2024/01/10 09:32:30;;;;;;;18.27;13.10;;;;;;;;;;5048040;28;20487;-75
2024/01/10 09:34:56;;;;;;;19.60;12.65;;;;;;;;;;5047950;28;20392;-75
2024/01/10 09:37:23;;;;;;;18.33;13.13;;;;;;;;;;5048280;28;20017;-75
2024/01/10 09:39:49;;;;;;;17.75;13.00;;;;;;;;;;5047357;28;20485;-75
2024/01/10 09:42:15;;;;;;;19.05;13.82;;;;;;;;;;5049577;28;20015;-75
2024/01/10 09:44:42;;;;;;;20.08;13.88;;;;;;;;;;5047937;28;20458;-75
2024/01/10 09:47:08;;;;;;;21.42;15.18;;;;;;;;;;5048016;28;20025;-75
2024/01/10 09:49:34;;;;;;;21.10;13.45;;;;;;;;;;5049459;28;20116;-75
2024/01/10 09:52:01;;;;;;;17.15;12.20;;;;;;;;;;5046835;28;20468;-75
2024/01/10 09:54:30;;;;;;;16.95;12.52;;;;;;;;;;5046481;28;20017;-75
2024/01/10 09:56:57;;;;;;;17.15;11.27;;;;;;;;;;5046894;28;20048;-75
2024/01/10 09:59:23;;;;;;;18.25;13.13;;;;;;;;;;5051560;28;20106;-76
2024/01/10 10:01:49;;;;;;;17.33;12.43;;;;;;;;;;5045991;28;20099;-75
2024/01/10 10:04:16;;;;;;;19.38;12.63;;;;;;;;;;5046354;28;20017;-75
2024/01/10 10:06:42;;;;;;;18.67;12.27;;;;;;;;;;5046503;28;20021;-75
2024/01/10 10:09:09;;;;;;;16.02;11.40;;;;;;;;;;5046645;28;20384;-75
2024/01/10 10:11:35;;;;;;;16.67;12.38;;;;;;;;;;5044985;28;20021;-75
2024/01/10 10:14:20;;;;;;;19.00;12.95;;;;;;;;;;5031782;28;20400;-75
2024/01/10 10:16:46;;;;;;;19.38;12.90;;;;;;;;;;5042569;28;20025;-76
2024/01/10 10:19:13;;;;;;;20.20;13.32;;;;;;;;;;5047956;28;20029;-75
2024/01/10 10:21:39;;;;;;;18.58;12.55;;;;;;;;;;5048035;28;20020;-76
2024/01/10 10:24:05;;;;;;;19.40;13.18;;;;;;;;;;5047090;28;20056;-75
2024/01/10 10:26:35;;;;;;;18.60;12.43;;;;;;;;;;5046673;28;20100;-76
2024/01/10 10:29:02;;;;;;;19.23;12.30;;;;;;;;;;5046848;28;20041;-75
2024/01/10 10:31:31;;;;;;;17.75;11.65;;;;;;;;;;5047723;28;21126;-75
2024/01/10 10:33:57;;;;;;;20.63;12.63;;;;;;;;;;5047235;28;20074;-75
2024/01/10 10:36:24;;;;;;;21.92;13.45;;;;;;;;;;5048333;28;20040;-75
2024/01/10 10:38:50;;;;;;;20.67;13.05;;;;;;;;;;5047907;28;20029;-75
2024/01/10 10:41:16;;;;;;;21.65;12.38;;;;;;;;;;5046795;28;20029;-76
2024/01/10 10:43:42;;;;;;;16.95;11.50;;;;;;;;;;5048317;28;20028;-75
2024/01/10 10:46:16;;;;;;;21.48;13.15;;;;;;;;;;5047895;28;20713;-75
2024/01/10 10:48:42;;;;;;;19.27;12.57;;;;;;;;;;5047757;28;20028;-75
2024/01/10 10:51:08;;;;;;;21.45;11.85;;;;;;;;;;5047224;28;20048;-75
2024/01/10 10:53:35;;;;;;;22.15;12.88;;;;;;;;;;5049429;28;20074;-76
2024/01/10 10:56:03;;;;;;;20.58;12.02;;;;;;;;;;5046947;28;20078;-75
2024/01/10 10:58:31;;;;;;;21.92;11.85;;;;;;;;;;5046556;28;20653;-75
2024/01/10 11:00:57;;;;;;;23.58;13.45;;;;;;;;;;5046949;28;20422;-75
2024/01/10 11:03:24;;;;;;;21.17;11.63;;;;;;;;;;5048979;28;20009;-77
2024/01/10 11:05:51;;;;;;;22.42;12.55;;;;;;;;;;5048521;28;20019;-77
2024/01/10 11:08:18;;;;;;;23.15;12.73;;;;;;;;;;5046472;28;20021;-77
2024/01/10 11:10:45;;;;;;;24.25;14.40;;;;;;;;;;5050218;28;20017;-76
2024/01/10 11:13:30;;;;;;;22.08;12.57;;;;;;;;;;5048785;28;20017;-77
2024/01/10 11:16:11;;;;;;;23.58;13.38;;;;;;;;;;5047305;28;20526;-77
2024/01/10 11:18:37;;;;;;;23.20;13.07;;;;;;;;;;5044163;28;20072;-77
2024/01/10 11:21:24;;;;;;;20.13;12.35;;;;;;;;;;5045098;28;20477;-78
2024/01/10 11:23:53;;;;;;;20.88;11.95;;;;;;;;;;5047153;28;20005;-76
2024/01/10 11:26:20;;;;;;;22.67;12.07;;;;;;;;;;5048589;28;20079;-79
2024/01/10 11:28:46;;;;;;;20.80;12.23;;;;;;;;;;5045639;28;20021;-77
2024/01/10 11:31:15;;;;;;;19.42;11.50;;;;;;;;;;5044140;28;20424;-76
2024/01/10 11:33:43;;;;;;;19.48;10.13;;;;;;;;;;5046877;28;20020;-76
2024/01/10 11:36:10;;;;;;;21.75;12.18;;;;;;;;;;5045435;28;20033;-77
2024/01/10 11:38:42;;;;;;;23.27;11.23;;;;;;;;;;5046855;28;20168;-76
2024/01/10 11:41:11;;;;;;;20.70;11.32;;;;;;;;;;5045533;28;20016;-76
2024/01/10 11:43:37;;;;;;;17.40;10.65;;;;;;;;;;5048681;28;20017;-76
2024/01/10 11:46:04;;;;;;;20.50;11.18;;;;;;;;;;5049673;28;20013;-76
2024/01/10 11:48:32;;;;;;;18.92;10.60;;;;;;;;;;5049608;28;20074;-76
2024/01/10 11:50:59;;;;;;;19.38;10.30;;;;;;;;;;5049426;28;20052;-76
2024/01/10 11:53:42;;;;;;;21.67;11.63;;;;;;;;;;5049609;28;20373;-76
2024/01/10 11:56:11;;;;;;;18.63;10.10;;;;;;;;;;5050346;28;20021;-76
2024/01/10 11:58:56;;;;;;;16.48;9.27;;;;;;;;;;5030421;28;20029;-77
2024/01/10 12:01:23;;;;;;;20.13;10.23;;;;;;;;;;5030048;28;20021;-76
2024/01/10 12:03:52;;;;;;;17.35;9.25;;;;;;;;;;5048753;28;20066;-76
2024/01/10 12:06:20;;;;;;;18.65;9.10;;;;;;;;;;5050915;28;20025;-76
2024/01/10 12:08:46;;;;;;;18.35;10.73;;;;;;;;;;5050296;28;20013;-77
2024/01/10 12:11:12;;;;;;;17.75;9.95;;;;;;;;;;5049546;28;20021;-76
2024/01/10 12:13:38;;;;;;;17.52;9.73;;;;;;;;;;5050376;28;20120;-76
2024/01/10 12:16:04;;;;;;;18.42;10.15;;;;;;;;;;5048886;28;20025;-76
2024/01/10 12:18:30;;;;;;;16.67;9.10;;;;;;;;;;5048798;28;20021;-76
2024/01/10 12:20:56;;;;;;;17.75;9.23;;;;;;;;;;5049027;28;20584;-76
2024/01/10 12:23:22;;;;;;;16.65;9.10;;;;;;;;;;5048412;28;20017;-77
2024/01/10 12:25:51;;;;;;;15.27;8.15;;;;;;;;;;5048862;28;20017;-77
2024/01/10 12:28:17;;;;;;;17.73;9.40;;;;;;;;;;5050935;28;20091;-80
2024/01/10 12:30:44;;;;;;;15.23;8.93;;;;;;;;;;5048128;28;20492;-77
2024/01/10 12:33:10;;;;;;;16.88;9.52;;;;;;;;;;5046636;28;20016;-76
2024/01/10 12:35:37;;;;;;;16.80;9.20;;;;;;;;;;5049147;28;20069;-76
2024/01/10 12:38:03;;;;;;;16.73;8.82;;;;;;;;;;5050293;28;20481;-77
2024/01/10 12:40:29;;;;;;;16.60;9.23;;;;;;;;;;5049447;28;20379;-76
2024/01/10 12:43:05;;;;;;;16.67;10.07;;;;;;;;;;5049347;28;20052;-76
2024/01/10 12:45:31;;;;;;;18.02;9.40;;;;;;;;;;5049370;28;20103;-77
2024/01/10 12:47:58;;;;;;;16.75;9.23;;;;;;;;;;5048839;28;20044;-76
2024/01/10 12:50:27;;;;;;;15.00;8.65;;;;;;;;;;5049948;28;20473;-76
2024/01/10 12:52:53;;;;;;;15.25;7.95;;;;;;;;;;5050531;28;20070;-77
2024/01/10 12:55:19;;;;;;;19.02;10.13;;;;;;;;;;5047738;28;20079;-77
2024/01/10 12:57:45;;;;;;;17.73;9.63;;;;;;;;;;5048496;28;20013;-78
2024/01/10 13:00:13;;;;;;;16.35;8.82;;;;;;;;;;5048607;28;20050;-76
2024/01/10 13:02:40;;;;;;;17.20;9.18;;;;;;;;;;5047921;28;20103;-77
2024/01/10 13:05:09;;;;;;;16.70;9.27;;;;;;;;;;5050995;28;20051;-77
2024/01/10 13:07:38;;;;;;;16.08;8.60;;;;;;;;;;5059121;28;20100;-78
2024/01/10 13:10:04;;;;;;;16.27;8.68;;;;;;;;;;5055780;28;20510;-77
2024/01/10 13:12:31;;;;;;;17.00;9.55;;;;;;;;;;5049319;28;20082;-77
2024/01/10 13:14:56;;;;;;;16.23;8.82;;;;;;;;;;5049246;28;20020;-77
2024/01/10 13:17:22;;;;;;;15.75;8.70;;;;;;;;;;5049213;28;20017;-77
2024/01/10 13:19:48;;;;;;;16.23;8.60;;;;;;;;;;5049826;28;20536;-76
2024/01/10 13:22:18;;;;;;;14.80;8.55;;;;;;;;;;5047650;28;20082;-77
2024/01/10 13:24:45;;;;;;;16.30;9.32;;;;;;;;;;5046440;28;20298;-77
2024/01/10 13:27:11;;;;;;;15.43;8.93;;;;;;;;;;5048941;28;20063;-77
2024/01/10 13:29:38;;;;;;;18.42;9.70;;;;;;;;;;5053686;28;20591;-77
2024/01/10 13:32:04;;;;;;;15.80;8.88;;;;;;;;;;5048964;28;20080;-77
2024/01/10 13:34:30;;;;;;;16.45;8.70;;;;;;;;;;5050292;28;20384;-77
2024/01/10 13:36:56;;;;;;;14.45;8.48;;;;;;;;;;5048774;28;20477;-77
2024/01/10 13:39:22;;;;;;;14.27;8.77;;;;;;;;;;5048559;28;20029;-77
2024/01/10 13:41:48;;;;;;;15.30;9.15;;;;;;;;;;5048191;28;20025;-77
2024/01/10 13:44:14;;;;;;;15.68;9.00;;;;;;;;;;5048532;28;20078;-77
2024/01/10 13:46:41;;;;;;;17.98;9.18;;;;;;;;;;5048842;28;20098;-77
2024/01/10 13:49:07;;;;;;;16.83;8.90;;;;;;;;;;5050324;28;20047;-77
2024/01/10 13:51:33;;;;;;;16.98;9.15;;;;;;;;;;5050209;28;20016;-77
2024/01/10 13:53:59;;;;;;;14.77;8.45;;;;;;;;;;5047336;28;20020;-77
2024/01/10 13:56:27;;;;;;;15.00;8.40;;;;;;;;;;5048815;28;20432;-77
2024/01/10 13:58:53;;;;;;;17.17;8.98;;;;;;;;;;5048036;28;20036;-77
2024/01/10 14:01:19;;;;;;;16.20;8.10;;;;;;;;;;5048328;28;20599;-77
2024/01/10 14:03:45;;;;;;;15.50;8.40;;;;;;;;;;5049211;28;20071;-77
2024/01/10 14:06:12;;;;;;;15.80;8.50;;;;;;;;;;5049302;28;20017;-77
2024/01/10 14:08:40;;;;;;;15.13;8.05;;;;;;;;;;5047806;28;20017;-76
2024/01/10 14:11:06;;;;;;;14.40;8.40;;;;;;;;;;5049632;28;20021;-77
2024/01/10 14:13:32;;;;;;;16.13;8.95;;;;;;;;;;5047744;28;20499;-77
2024/01/10 14:15:58;;;;;;;15.05;8.93;;;;;;;;;;5048197;28;20021;-77